Death Valley, California
Current Conditions -  °F | °C
As of 10:52 PM on Saturday 25 Oct 2014 (Local Time) from KDRA Reporting Station
Clear Clear  
Wind Chill: 69°   Ceiling: Unl
Heat Index: 69°   Visibility: 10mi
Dew Point: 37°   Wind: 13mph
Humidity: 31%   Direction: 220°SW
Pressure: 29.97"   Gusts: 28mph
Location:  36.46°N, 116.87°W
Report Text: KDRA 260552Z AUTO 22011G24KT 10SM CLR 21/03 A2997 RMK AO2 SLP108 T02060028 10250 20206 50004
Loading
Personal Weather Stations






























Interactive Weather Map
Tropical Storm Tracking
New forecast layout! Learn more

10-Day Weather Forecast

Advertisements
Track Severe Weather on mobile